Time;durP1;ratioP1;P1;durP2;ratioP2;P2;SDS_P1;SDS_P2;PMS_P1;PMS_P2;Temp;Humidity;BMP_temperature;BMP_pressure;BME280_temperature;BME280_humidity;BME280_pressure;Samples;Min_cycle;Max_cycle;Signal;HPM_P1;HPM_P2
2022/05/12 00:01:17;;;;;;;10.50;7.50;;;;;;99767.41;;;;107221;1274;64818;-26
2022/05/12 00:03:46;;;;;;;8.80;8.00;;;;;;99766.67;;;;107248;1274;64725;-27
2022/05/12 00:06:14;;;;;;;8.80;7.90;;;;;;99762.07;;;;107258;1274;64959;-29
2022/05/12 00:08:41;;;;;;;9.00;8.00;;;;;;99760.16;;;;107274;1274;67774;-29
2022/05/12 00:11:08;;;;;;;9.00;8.00;;;;;;99756.45;;;;107253;1274;64787;-29
2022/05/12 00:13:36;;;;;;;9.40;8.50;;;;;;99755.26;;;;107251;1274;63650;-26
2022/05/12 00:16:04;;;;;;;9.10;8.20;;;;;;99753.09;;;;107258;1274;64739;-26
2022/05/12 00:18:32;;;;;;;9.00;8.10;;;;;;99749.90;;;;107313;1274;64741;-27
2022/05/12 00:20:59;;;;;;;8.50;7.80;;;;;;99744.77;;;;107167;1274;66258;-27
2022/05/12 00:23:28;;;;;;;9.10;8.20;;;;;;99744.36;;;;107234;1275;65511;-40
2022/05/12 00:25:56;;;;;;;8.90;8.00;;;;;;99742.50;;;;107254;1275;64862;-28
2022/05/12 00:28:25;;;;;;;8.60;7.70;;;;;;99745.61;;;;107145;1274;64882;-27
2022/05/12 00:30:56;;;;;;;8.30;7.50;;;;;;99738.83;;;;107281;1274;64838;-26
2022/05/12 00:33:27;;;;;;;8.90;8.00;;;;;;99738.56;;;;107205;1274;65745;-26
2022/05/12 00:35:56;;;;;;;9.70;8.70;;;;;;99738.92;;;;107245;1274;64830;-32
2022/05/12 00:38:24;;;;;;;9.60;8.30;;;;;;99737.95;;;;107263;1274;64825;-27
2022/05/12 00:40:51;;;;;;;9.00;8.10;;;;;;99732.68;;;;107225;1274;64903;-27
2022/05/12 00:43:49;;;;;;;9.10;8.20;;;;;;99729.27;;;;107260;1274;64747;-30
2022/05/12 00:46:21;;;;;;;8.70;7.90;;;;;;99730.32;;;;107245;1274;66134;-28
2022/05/12 00:48:50;;;;;;;9.30;8.40;;;;;;99731.66;;;;107259;1274;64737;-29
2022/05/12 00:51:32;;;;;;;8.80;7.70;;;;;;99727.90;;;;107281;1274;64751;-28
2022/05/12 00:54:03;;;;;;;9.50;8.50;;;;;;99727.59;;;;107162;1274;64959;-26
2022/05/12 00:56:32;;;;;;;9.40;8.20;;;;;;99723.94;;;;107264;1274;64827;-28
2022/05/12 00:59:13;;;;;;;9.50;8.50;;;;;;99724.09;;;;107209;1274;64984;-29
2022/05/12 01:01:40;;;;;;;9.10;8.20;;;;;;99719.30;;;;107287;1275;64730;-26
2022/05/12 01:04:07;;;;;;;9.00;8.10;;;;;;99717.45;;;;107214;1274;64741;-31
2022/05/12 01:06:35;;;;;;;9.50;8.60;;;;;;99716.16;;;;107183;1274;64840;-28
2022/05/12 01:09:03;;;;;;;9.10;8.20;;;;;;99713.36;;;;107282;1274;64837;-28
2022/05/12 01:11:30;;;;;;;9.00;8.10;;;;;;99712.20;;;;107231;1274;65091;-28
2022/05/12 01:14:05;;;;;;;9.20;8.20;;;;;;99712.85;;;;107134;1277;64931;-28
2022/05/12 01:16:38;;;;;;;9.10;8.20;;;;;;99710.44;;;;107269;1274;64744;-26
2022/05/12 01:19:07;;;;;;;9.10;8.20;;;;;;99707.35;;;;107258;1274;64775;-26
2022/05/12 01:21:35;;;;;;;8.90;8.10;;;;;;99703.31;;;;107256;1274;64865;-28
2022/05/12 01:24:02;;;;;;;9.40;8.40;;;;;;99701.14;;;;107292;1274;65894;-28
2022/05/12 01:26:31;;;;;;;9.20;8.30;;;;;;99699.68;;;;107177;1274;64762;-30
2022/05/12 01:28:58;;;;;;;9.10;8.20;;;;;;99695.55;;;;107162;1275;64856;-25
2022/05/12 01:31:27;;;;;;;9.40;8.40;;;;;;99696.59;;;;107254;1274;64699;-26
2022/05/12 01:33:54;;;;;;;8.60;7.80;;;;;;99689.61;;;;107283;1274;65155;-26
2022/05/12 01:36:22;;;;;;;8.40;7.50;;;;;;99689.91;;;;107269;1274;65633;-29
2022/05/12 01:38:50;;;;;;;8.70;7.80;;;;;;99689.85;;;;107269;1274;64759;-26
2022/05/12 01:41:17;;;;;;;8.90;7.90;;;;;;99685.11;;;;107246;1274;64744;-26
2022/05/12 01:43:45;;;;;;;9.10;8.20;;;;;;99685.10;;;;107235;1274;64706;-26
2022/05/12 01:46:13;;;;;;;9.20;8.30;;;;;;99681.52;;;;107262;1274;64820;-26
2022/05/12 01:48:40;;;;;;;9.10;8.00;;;;;;99677.88;;;;107259;1274;67361;-27
2022/05/12 01:51:21;;;;;;;9.00;8.10;;;;;;99674.98;;;;107211;1275;64881;-27
2022/05/12 01:53:51;;;;;;;10.20;8.30;;;;;;99674.37;;;;107216;1274;64833;-29
2022/05/12 01:56:18;;;;;;;9.70;8.70;;;;;;99671.55;;;;107231;1274;64871;-28
2022/05/12 01:58:45;;;;;;;8.10;7.30;;;;;;99672.90;;;;107269;1274;64834;-28
2022/05/12 02:01:12;;;;;;;8.40;7.60;;;;;;99668.69;;;;107255;1274;66388;-29
2022/05/12 02:03:40;;;;;;;8.20;7.30;;;;;;99669.11;;;;107247;1274;64744;-26
2022/05/12 02:06:07;;;;;;;8.20;7.40;;;;;;99665.86;;;;107240;1274;64744;-26
2022/05/12 02:08:34;;;;;;;8.90;7.90;;;;;;99665.50;;;;107220;1274;64830;-27
2022/05/12 02:11:01;;;;;;;8.60;7.80;;;;;;99663.69;;;;107133;1274;64876;-26
2022/05/12 02:13:28;;;;;;;8.50;7.60;;;;;;99657.83;;;;107262;1274;65269;-26
2022/05/12 02:15:57;;;;;;;8.20;7.40;;;;;;99657.70;;;;107236;1274;64770;-26
2022/05/12 02:18:26;;;;;;;8.50;7.70;;;;;;99651.50;;;;107132;1274;64869;-28
2022/05/12 02:20:54;;;;;;;8.40;7.50;;;;;;99652.04;;;;107244;1274;64876;-28
2022/05/12 02:23:21;;;;;;;8.30;7.50;;;;;;99651.08;;;;107293;1274;64739;-27
2022/05/12 02:25:49;;;;;;;8.40;7.60;;;;;;99648.01;;;;107293;1274;64773;-26
2022/05/12 02:28:16;;;;;;;8.40;7.60;;;;;;99639.85;;;;107252;1274;64865;-29
2022/05/12 02:30:44;;;;;;;8.70;7.60;;;;;;99640.44;;;;107237;1274;65257;-29
2022/05/12 02:33:11;;;;;;;9.70;8.00;;;;;;99640.36;;;;107232;1274;64734;-25
2022/05/12 02:35:39;;;;;;;8.10;7.30;;;;;;99636.23;;;;107269;1274;65288;-26
2022/05/12 02:38:08;;;;;;;8.90;8.00;;;;;;99631.71;;;;107243;1274;67014;-26
2022/05/12 02:40:36;;;;;;;8.00;7.20;;;;;;99630.56;;;;107126;1274;65174;-27
2022/05/12 02:43:23;;;;;;;8.00;7.20;;;;;;99618.92;;;;107232;1274;64719;-28
2022/05/12 02:46:12;;;;;;;8.10;7.20;;;;;;99618.35;;;;107214;1274;64766;-28
2022/05/12 02:48:45;;;;;;;8.90;8.00;;;;;;99621.63;;;;107272;1274;64840;-28
2022/05/12 02:51:13;;;;;;;8.10;7.30;;;;;;99622.87;;;;107266;1274;67183;-28
2022/05/12 02:53:41;;;;;;;8.50;7.30;;;;;;99622.29;;;;107276;1274;64744;-28
2022/05/12 02:56:09;;;;;;;8.40;7.60;;;;;;99621.25;;;;107239;1274;64766;-29
2022/05/12 02:58:37;;;;;;;8.40;7.10;;;;;;99617.49;;;;107270;1273;65011;-28
2022/05/12 03:01:05;;;;;;;8.10;7.30;;;;;;99612.77;;;;107284;1274;64721;-27
2022/05/12 03:03:33;;;;;;;8.80;7.60;;;;;;99613.75;;;;107257;1274;66450;-29
2022/05/12 03:06:00;;;;;;;7.60;6.90;;;;;;99616.63;;;;107247;1272;64772;-28
2022/05/12 03:08:27;;;;;;;7.90;7.10;;;;;;99610.50;;;;107123;1274;64949;-29
2022/05/12 03:10:55;;;;;;;8.00;7.20;;;;;;99612.67;;;;107213;1274;64868;-29
2022/05/12 03:13:23;;;;;;;8.40;7.40;;;;;;99609.76;;;;107269;1273;64820;-26
2022/05/12 03:15:51;;;;;;;7.60;6.90;;;;;;99603.77;;;;107246;1274;64987;-26
2022/05/12 03:18:19;;;;;;;9.50;7.10;;;;;;99608.63;;;;107248;1274;64965;-25
2022/05/12 03:20:46;;;;;;;7.80;6.80;;;;;;99601.92;;;;107248;1274;64760;-25
2022/05/12 03:23:14;;;;;;;7.40;6.70;;;;;;99596.70;;;;107239;1274;64881;-26
2022/05/12 03:25:45;;;;;;;7.60;6.70;;;;;;99596.05;;;;107252;1274;64865;-25
2022/05/12 03:28:12;;;;;;;7.60;6.90;;;;;;99603.15;;;;107280;1274;66184;-28
2022/05/12 03:30:43;;;;;;;8.30;7.40;;;;;;99597.61;;;;107260;1274;64804;-30
2022/05/12 03:33:11;;;;;;;7.70;6.90;;;;;;99594.61;;;;107214;1274;64848;-29
2022/05/12 03:35:38;;;;;;;7.80;7.00;;;;;;99590.84;;;;107224;1274;64841;-29
2022/05/12 03:38:05;;;;;;;7.60;6.70;;;;;;99592.45;;;;107259;1273;64756;-26
2022/05/12 03:40:33;;;;;;;7.30;6.60;;;;;;99593.23;;;;107259;1274;67220;-26
2022/05/12 03:43:00;;;;;;;8.30;7.30;;;;;;99598.41;;;;107271;1273;64853;-26
2022/05/12 03:45:33;;;;;;;9.20;7.10;;;;;;99595.32;;;;107232;1274;64757;-26
2022/05/12 03:48:01;;;;;;;8.00;7.20;;;;;;99594.84;;;;107262;1274;64724;-28
2022/05/12 03:50:29;;;;;;;8.70;7.00;;;;;;99595.13;;;;107273;1274;64769;-28
2022/05/12 03:52:56;;;;;;;7.70;6.80;;;;;;99591.79;;;;107172;1274;65105;-26
2022/05/12 03:55:26;;;;;;;7.20;6.40;;;;;;99591.98;;;;107246;1274;64886;-26
2022/05/12 03:57:55;;;;;;;8.70;7.00;;;;;;99587.20;;;;107237;1274;65024;-26
2022/05/12 04:00:28;;;;;;;8.00;6.80;;;;;;99589.98;;;;107254;1274;64773;-26
2022/05/12 04:02:56;;;;;;;7.00;6.30;;;;;;99587.67;;;;107269;1274;63610;-30
2022/05/12 04:05:24;;;;;;;8.60;6.50;;;;;;99580.55;;;;107247;1273;64971;-27
2022/05/12 04:07:52;;;;;;;7.90;6.20;;;;;;99578.89;;;;107267;1274;64888;-28
2022/05/12 04:10:22;;;;;;;7.50;6.70;;;;;;99582.89;;;;107282;1274;64744;-27
2022/05/12 04:12:50;;;;;;;9.20;6.10;;;;;;99580.84;;;;107211;1274;64735;-29
2022/05/12 04:15:20;;;;;;;7.20;6.50;;;;;;99578.50;;;;107270;1274;64892;-28
2022/05/12 04:18:03;;;;;;;7.10;6.40;;;;;;99572.02;;;;107025;1273;355010;-29
2022/05/12 04:20:33;;;;;;;7.40;6.00;;;;;;99569.99;;;;107209;1274;64961;-28
2022/05/12 04:23:00;;;;;;;7.00;6.30;;;;;;99571.90;;;;107206;1274;64692;-28
2022/05/12 04:25:27;;;;;;;6.90;6.10;;;;;;99570.67;;;;107208;1274;64745;-30
2022/05/12 04:27:54;;;;;;;7.30;6.40;;;;;;99571.90;;;;107236;1274;64866;-27
2022/05/12 04:30:24;;;;;;;7.00;5.90;;;;;;99571.58;;;;107270;1272;66053;-26
2022/05/12 04:32:52;;;;;;;7.50;5.90;;;;;;99574.67;;;;107259;1274;63680;-26
2022/05/12 04:35:20;;;;;;;7.90;6.60;;;;;;99571.89;;;;107273;1274;64853;-26
2022/05/12 04:37:52;;;;;;;6.90;6.10;;;;;;99569.27;;;;107264;1274;64759;-28
2022/05/12 04:40:26;;;;;;;8.10;6.60;;;;;;99573.42;;;;107255;1274;64984;-28
2022/05/12 04:42:57;;;;;;;6.90;6.20;;;;;;99571.77;;;;107278;1274;67111;-27
2022/05/12 04:45:29;;;;;;;7.20;6.40;;;;;;99569.75;;;;107210;1274;64969;-26
2022/05/12 04:47:56;;;;;;;6.40;5.70;;;;;;99566.42;;;;107290;1274;64863;-26
2022/05/12 04:50:27;;;;;;;7.50;6.20;;;;;;99566.23;;;;107240;1274;64859;-26
2022/05/12 04:52:55;;;;;;;7.40;5.70;;;;;;99570.15;;;;107258;1274;64746;-25
2022/05/12 04:55:22;;;;;;;9.40;6.20;;;;;;99564.08;;;;107260;1274;65102;-28
2022/05/12 04:57:53;;;;;;;6.90;5.90;;;;;;99562.93;;;;107236;1274;65535;-28
2022/05/12 05:00:27;;;;;;;6.80;6.00;;;;;;99558.92;;;;107258;1274;65165;-30
2022/05/12 05:02:55;;;;;;;7.30;5.50;;;;;;99559.76;;;;107232;1274;64972;-30
2022/05/12 05:05:23;;;;;;;8.20;6.20;;;;;;99556.09;;;;107307;1274;64930;-26
2022/05/12 05:07:50;;;;;;;7.20;5.70;;;;;;99551.54;;;;107268;1274;64740;-30
2022/05/12 05:10:19;;;;;;;6.20;5.60;;;;;;99553.98;;;;107018;1274;64738;-28
2022/05/12 05:12:46;;;;;;;7.70;5.50;;;;;;99558.61;;;;107225;1274;64864;-26
2022/05/12 05:15:15;;;;;;;7.90;5.40;;;;;;99557.83;;;;107240;1274;64917;-26
2022/05/12 05:17:44;;;;;;;8.10;5.80;;;;;;99551.54;;;;107316;1273;64755;-28
2022/05/12 05:20:21;;;;;;;7.20;5.10;;;;;;99549.15;;;;107253;1274;66311;-28
2022/05/12 05:22:49;;;;;;;7.60;5.50;;;;;;99553.05;;;;107267;1274;64987;-29
2022/05/12 05:25:16;;;;;;;8.10;5.50;;;;;;99549.41;;;;107245;1274;64849;-29
2022/05/12 05:27:45;;;;;;;7.90;5.60;;;;;;99552.61;;;;107160;1274;64604;-26
2022/05/12 05:30:18;;;;;;;7.20;5.40;;;;;;99549.27;;;;107281;1274;64767;-40
2022/05/12 05:32:48;;;;;;;8.00;5.50;;;;;;99544.23;;;;107278;1274;66232;-26
2022/05/12 05:35:16;;;;;;;7.30;5.00;;;;;;99542.20;;;;107251;1274;64740;-26
2022/05/12 05:37:44;;;;;;;8.10;5.50;;;;;;99547.39;;;;107285;1274;64827;-27
2022/05/12 05:40:15;;;;;;;7.40;5.50;;;;;;99548.59;;;;107263;1274;64834;-28
2022/05/12 05:42:45;;;;;;;8.00;5.30;;;;;;99556.05;;;;107269;1274;64736;-31
2022/05/12 05:45:16;;;;;;;7.20;5.60;;;;;;99549.98;;;;107302;1274;66568;-29
2022/05/12 05:47:50;;;;;;;6.90;5.30;;;;;;99548.92;;;;107249;1273;64734;-28
2022/05/12 05:50:22;;;;;;;8.00;5.50;;;;;;99552.84;;;;107251;1274;64884;-28
2022/05/12 05:55:34;;;;;;;7.10;5.50;;;;;;99547.65;;;;107269;1274;64852;-28
2022/05/12 05:58:04;;;;;;;6.30;5.30;;;;;;99545.10;;;;107239;1274;65834;-26
2022/05/12 06:00:32;;;;;;;6.20;5.20;;;;;;99542.63;;;;107271;1274;64757;-27
2022/05/12 06:03:00;;;;;;;7.90;5.40;;;;;;99545.80;;;;107239;1274;64853;-28
2022/05/12 06:05:28;;;;;;;8.30;5.50;;;;;;99547.15;;;;107254;1274;64732;-30
2022/05/12 06:07:57;;;;;;;9.10;5.30;;;;;;99553.98;;;;107259;1274;64767;-26
2022/05/12 06:10:25;;;;;;;8.20;5.50;;;;;;99553.04;;;;107258;1274;65011;-26
2022/05/12 06:12:53;;;;;;;8.80;5.90;;;;;;99547.30;;;;107271;1274;65177;-26
2022/05/12 06:15:21;;;;;;;7.70;5.40;;;;;;99550.70;;;;107276;1274;65806;-26
2022/05/12 06:17:48;;;;;;;7.20;5.50;;;;;;99555.70;;;;107252;1274;64767;-27
2022/05/12 06:20:16;;;;;;;7.60;5.50;;;;;;99549.63;;;;107257;1274;64751;-29
2022/05/12 06:22:44;;;;;;;8.30;5.50;;;;;;99550.48;;;;107211;1274;64769;-29
2022/05/12 06:25:15;;;;;;;11.10;5.40;;;;;;99545.80;;;;107264;1274;64727;-30
2022/05/12 06:27:44;;;;;;;7.10;5.50;;;;;;99548.27;;;;107199;1274;64929;-29
2022/05/12 06:30:13;;;;;;;8.00;5.70;;;;;;99555.03;;;;107254;1272;64751;-29
2022/05/12 06:32:42;;;;;;;9.30;5.40;;;;;;99555.42;;;;107295;1274;64961;-26
2022/05/12 06:35:13;;;;;;;8.70;5.50;;;;;;99550.15;;;;107285;1274;66535;-27
2022/05/12 06:37:40;;;;;;;8.40;5.60;;;;;;99560.80;;;;107264;1274;64848;-26
2022/05/12 06:40:09;;;;;;;7.90;5.30;;;;;;99562.75;;;;107222;1274;64834;-26
2022/05/12 06:42:36;;;;;;;7.70;5.50;;;;;;99564.17;;;;107266;1274;63744;-26
2022/05/12 06:45:06;;;;;;;6.70;5.90;;;;;;99560.77;;;;107145;1274;64824;-26
2022/05/12 06:47:33;;;;;;;10.30;6.00;;;;;;99568.61;;;;107280;1274;66413;-26
2022/05/12 06:50:03;;;;;;;9.10;5.50;;;;;;99563.55;;;;107154;1274;64818;-25
2022/05/12 06:52:30;;;;;;;9.30;6.00;;;;;;99558.01;;;;107215;1274;64782;-26
2022/05/12 06:54:58;;;;;;;7.50;5.30;;;;;;99563.34;;;;107256;1274;64868;-26
2022/05/12 06:57:29;;;;;;;7.60;5.50;;;;;;99559.73;;;;107269;1273;62179;-26
2022/05/12 07:02:41;;;;;;;12.40;5.90;;;;;;99558.75;;;;107140;1273;64766;-28
2022/05/12 07:05:08;;;;;;;10.60;5.60;;;;;;99557.27;;;;107247;1274;64776;-28
2022/05/12 07:07:36;;;;;;;8.40;5.60;;;;;;99574.69;;;;107258;1274;64843;-30
2022/05/12 07:10:05;;;;;;;9.50;6.00;;;;;;99563.92;;;;107164;1274;64764;-28
2022/05/12 07:12:33;;;;;;;10.70;7.30;;;;;;99567.23;;;;107215;1273;66114;-28
2022/05/12 07:15:01;;;;;;;10.00;5.90;;;;;;99568.52;;;;107223;1274;64882;-28
2022/05/12 07:17:28;;;;;;;8.60;5.90;;;;;;99571.58;;;;107238;1273;63606;-26
2022/05/12 07:28:19;;;;;;;9.90;5.70;;;;;;99576.91;;;;107155;1274;64700;-26
2022/05/12 07:31:01;;;;;;;11.60;5.90;;;;;;99588.73;;;;107268;1274;65778;-27
2022/05/12 07:33:42;;;;;;;8.20;5.90;;;;;;99605.20;;;;107010;1274;64877;-26
2022/05/12 07:36:25;;;;;;;10.30;5.30;;;;;;99596.31;;;;107156;1274;64827;-26
2022/05/12 07:38:55;;;;;;;8.60;4.80;;;;;;99611.12;;;;107231;1274;67552;-26
2022/05/12 07:41:24;;;;;;;6.40;5.00;;;;;;99612.05;;;;107251;1274;64740;-27
2022/05/12 07:43:51;;;;;;;8.40;5.60;;;;;;99619.15;;;;107245;1274;64725;-29
2022/05/12 07:46:23;;;;;;;9.30;5.30;;;;;;99629.02;;;;107151;1274;64872;-29
2022/05/12 07:48:51;;;;;;;7.30;5.00;;;;;;99639.11;;;;107293;1273;64853;-28
2022/05/12 07:51:23;;;;;;;6.20;4.90;;;;;;99645.32;;;;107189;1273;65072;-28
2022/05/12 07:53:51;;;;;;;8.10;5.00;;;;;;99647.34;;;;107222;1274;64847;-28
2022/05/12 07:56:22;;;;;;;7.10;4.70;;;;;;99661.33;;;;107236;1273;64918;-29
2022/05/12 07:58:50;;;;;;;7.50;5.20;;;;;;99659.79;;;;107080;1274;64783;-29
2022/05/12 08:01:19;;;;;;;7.70;5.20;;;;;;99662.13;;;;107222;1274;64916;-28
2022/05/12 08:03:47;;;;;;;6.20;4.80;;;;;;99663.45;;;;107267;1274;64879;-26
2022/05/12 08:06:16;;;;;;;7.40;5.20;;;;;;99672.73;;;;107251;1274;64969;-26
2022/05/12 08:08:46;;;;;;;10.50;4.80;;;;;;99687.93;;;;107233;1274;64751;-28
2022/05/12 08:11:14;;;;;;;7.10;5.00;;;;;;99707.64;;;;107161;1274;64971;-25
2022/05/12 08:13:46;;;;;;;7.00;4.30;;;;;;99712.77;;;;107242;1274;64723;-26
2022/05/12 08:16:19;;;;;;;8.90;5.80;;;;;;99715.65;;;;107236;1274;67431;-28
2022/05/12 08:18:49;;;;;;;;;;;;;;99733.14;;;;107181;1274;64758;-28
2022/05/12 08:21:19;;;;;;;7.70;5.40;;;;;;99725.44;;;;107239;1274;64741;-27
2022/05/12 08:23:47;;;;;;;8.00;5.40;;;;;;99739.00;;;;107256;1274;64757;-27
2022/05/12 08:26:14;;;;;;;8.10;5.40;;;;;;99744.58;;;;107253;1272;64770;-29
2022/05/12 08:28:42;;;;;;;7.50;5.10;;;;;;99768.65;;;;107250;1274;64828;-27
2022/05/12 08:31:10;;;;;;;7.80;5.00;;;;;;99783.54;;;;107282;1272;65029;-26
2022/05/12 08:33:38;;;;;;;9.60;5.30;;;;;;99791.96;;;;107286;1274;64735;-26
2022/05/12 08:36:06;;;;;;;7.00;4.90;;;;;;99779.47;;;;107252;1274;64753;-25
2022/05/12 08:38:34;;;;;;;6.80;4.60;;;;;;99798.30;;;;107277;1273;64880;-27
2022/05/12 08:41:12;;;;;;;8.30;4.20;;;;;;99791.36;;;;107254;1274;65109;-27
2022/05/12 08:43:45;;;;;;;7.40;4.10;;;;;;99800.58;;;;107245;1274;64744;-26
2022/05/12 08:46:19;;;;;;;6.30;4.10;;;;;;99818.17;;;;107260;1273;64886;-26
2022/05/12 08:48:49;;;;;;;7.60;4.10;;;;;;99828.79;;;;107239;1274;64789;-27
2022/05/12 08:51:20;;;;;;;10.60;3.80;;;;;;99826.83;;;;107264;1274;64770;-29
2022/05/12 08:53:56;;;;;;;7.00;3.70;;;;;;99829.22;;;;107235;1274;66165;-28
2022/05/12 08:56:25;;;;;;;8.10;4.10;;;;;;99837.42;;;;107228;1274;64788;-26
2022/05/12 08:58:57;;;;;;;5.60;4.20;;;;;;99840.52;;;;107266;1274;64882;-29
2022/05/12 09:01:58;;;;;;;6.30;3.50;;;;;;99849.58;;;;107263;1274;65061;-29
2022/05/12 09:05:03;;;;;;;6.00;3.40;;;;;;99857.05;;;;107269;1273;64868;-26
2022/05/12 09:07:53;;;;;;;6.80;3.60;;;;;;99851.30;;;;107264;1274;66541;-28
2022/05/12 09:10:37;;;;;;;9.70;4.00;;;;;;99854.46;;;;107234;1273;64846;-28
2022/05/12 09:13:21;;;;;;;6.80;3.70;;;;;;99853.98;;;;107249;1274;64789;-28
2022/05/12 09:16:17;;;;;;;6.20;3.10;;;;;;99861.21;;;;107154;1274;64897;-26
2022/05/12 09:18:45;;;;;;;6.20;3.40;;;;;;99854.94;;;;107184;1274;65145;-27
2022/05/12 09:21:17;;;;;;;6.90;3.20;;;;;;99857.27;;;;107239;1274;66203;-25
2022/05/12 09:23:44;;;;;;;5.90;3.30;;;;;;99868.03;;;;107248;1274;64855;-31
2022/05/12 09:26:43;;;;;;;6.40;3.60;;;;;;99864.10;;;;107192;1274;64879;-27
2022/05/12 09:29:14;;;;;;;6.90;2.90;;;;;;99875.89;;;;107174;1274;64905;-27
2022/05/12 09:31:47;;;;;;;5.50;2.80;;;;;;99880.17;;;;107268;1274;64845;-30
2022/05/12 09:34:29;;;;;;;5.10;2.50;;;;;;99890.10;;;;107278;1274;67147;-29
2022/05/12 09:36:56;;;;;;;4.90;2.80;;;;;;99892.36;;;;107233;1274;65398;-27
2022/05/12 09:39:32;;;;;;;5.80;3.00;;;;;;99899.04;;;;107144;1274;64835;-28
2022/05/12 09:42:01;;;;;;;6.80;3.20;;;;;;99910.10;;;;107190;1274;64744;-30
2022/05/12 09:44:31;;;;;;;4.10;2.60;;;;;;99905.36;;;;107281;1274;64795;-27
2022/05/12 09:47:12;;;;;;;5.60;2.50;;;;;;99916.82;;;;107256;1274;66135;-25
2022/05/12 09:49:43;;;;;;;4.30;2.50;;;;;;99923.08;;;;107217;1274;64744;-27
2022/05/12 09:52:21;;;;;;;5.20;2.30;;;;;;99925.43;;;;107270;1274;65176;-27
2022/05/12 09:54:49;;;;;;;7.60;2.20;;;;;;99937.83;;;;107218;1274;64770;-28
2022/05/12 09:57:24;;;;;;;6.20;2.30;;;;;;99938.95;;;;107157;1274;64897;-27
2022/05/12 09:59:57;;;;;;;5.80;2.50;;;;;;99944.05;;;;107235;1274;67337;-26
2022/05/12 10:08:29;;;;;;;5.40;2.10;;;;;;99984.17;;;;107225;1273;64799;-29
2022/05/12 10:11:06;;;;;;;5.40;2.80;;;;;;99997.04;;;;107276;1272;64746;-28
2022/05/12 10:13:50;;;;;;;5.30;2.00;;;;;;100008.30;;;;107237;1274;67374;-27
2022/05/12 10:16:26;;;;;;;6.60;2.00;;;;;;100013.77;;;;107237;1274;64756;-29
2022/05/12 10:18:59;;;;;;;6.40;2.10;;;;;;100021.93;;;;107244;1274;64959;-31
2022/05/12 10:21:34;;;;;;;5.40;1.90;;;;;;100011.44;;;;107229;1273;65924;-28
2022/05/12 10:24:27;;;;;;;6.20;1.70;;;;;;100019.23;;;;107198;1274;64796;-25
2022/05/12 10:27:02;;;;;;;4.90;1.40;;;;;;100014.77;;;;107240;1274;67253;-27
2022/05/12 10:29:45;;;;;;;8.30;1.60;;;;;;100035.67;;;;107223;1274;64850;-27
2022/05/12 10:32:36;;;;;;;5.00;1.50;;;;;;100040.64;;;;107227;1274;65905;-27
2022/05/12 10:35:52;;;;;;;7.20;1.80;;;;;;100034.61;;;;107230;1274;64764;-29
2022/05/12 10:38:52;;;;;;;8.50;1.80;;;;;;100045.90;;;;107168;1274;64831;-28
2022/05/12 10:41:38;;;;;;;4.40;1.40;;;;;;100042.49;;;;107249;1274;67309;-29
2022/05/12 10:44:21;;;;;;;8.70;1.80;;;;;;100050.96;;;;107206;1274;64930;-31
2022/05/12 10:47:07;;;;;;;8.30;1.80;;;;;;100035.87;;;;107125;1273;64753;-26
2022/05/12 10:50:21;;;;;;;4.70;1.30;;;;;;100045.31;;;;107134;1274;65009;-27
2022/05/12 10:53:10;;;;;;;6.90;1.50;;;;;;100036.14;;;;107064;1274;64760;-25
2022/05/12 10:56:10;;;;;;;6.80;1.50;;;;;;100035.73;;;;107247;1273;66455;-25
2022/05/12 10:59:26;;;;;;;6.60;1.60;;;;;;100053.15;;;;107228;1274;64747;-29
2022/05/12 11:02:31;;;;;;;8.30;1.50;;;;;;100066.48;;;;107198;1274;64920;-28
2022/05/12 11:05:14;;;;;;;5.80;1.40;;;;;;100057.20;;;;107226;1274;64855;-28
2022/05/12 11:07:52;;;;;;;6.90;1.60;;;;;;100052.26;;;;107227;1273;64740;-26
2022/05/12 11:10:40;;;;;;;5.80;1.50;;;;;;100048.71;;;;107217;1274;66470;-26
2022/05/12 11:13:32;;;;;;;5.00;1.30;;;;;;100057.59;;;;107087;1273;64801;-27
2022/05/12 11:16:17;;;;;;;5.30;1.10;;;;;;100037.77;;;;107266;1273;64786;-26
2022/05/12 11:19:05;;;;;;;7.00;1.50;;;;;;100043.48;;;;107225;1274;64872;-26
2022/05/12 11:21:40;;;;;;;5.70;1.50;;;;;;100053.15;;;;107233;1274;64702;-30
2022/05/12 11:24:41;;;;;;;5.00;1.40;;;;;;100050.14;;;;107226;1274;66828;-29
2022/05/12 11:27:38;;;;;;;6.50;1.50;;;;;;100064.30;;;;107243;1274;64578;-29
2022/05/12 11:30:36;;;;;;;6.30;1.40;;;;;;100079.44;;;;107242;1274;64758;-29
2022/05/12 11:33:32;;;;;;;7.00;1.60;;;;;;100077.14;;;;107179;1274;64799;-30
2022/05/12 11:36:00;;;;;;;6.30;1.50;;;;;;100075.30;;;;107229;1274;64882;-29
2022/05/12 11:38:42;;;;;;;5.90;1.90;;;;;;100079.14;;;;107259;1274;65817;-30
2022/05/12 11:41:19;;;;;;;3.10;1.50;;;;;;100076.15;;;;107206;1274;64759;-29
2022/05/12 11:47:07;;;;;;;5.90;1.30;;;;;;100083.42;;;;107224;1274;64744;-28
2022/05/12 11:49:43;;;;;;;7.00;1.50;;;;;;100089.65;;;;107220;1273;64856;-24
2022/05/12 11:52:19;;;;;;;4.20;1.60;;;;;;100100.53;;;;107225;1274;67721;-29
2022/05/12 11:54:59;;;;;;;5.10;1.80;;;;;;100090.04;;;;107221;1274;64743;-28
2022/05/12 11:57:43;;;;;;;4.20;1.30;;;;;;100087.41;;;;107207;1274;64876;-24
2022/05/12 12:00:33;;;;;;;5.40;1.40;;;;;;100098.18;;;;107221;1274;64853;-24
2022/05/12 12:03:19;;;;;;;4.50;1.60;;;;;;100083.95;;;;107272;1274;64759;-29
2022/05/12 12:05:49;;;;;;;6.60;1.70;;;;;;100075.73;;;;107235;1274;67398;-31
2022/05/12 12:08:31;;;;;;;7.90;1.60;;;;;;100103.23;;;;107226;1273;65216;-36
2022/05/12 12:11:14;;;;;;;6.80;1.80;;;;;;100079.92;;;;107236;1274;64881;-31
2022/05/12 12:13:49;;;;;;;5.70;1.30;;;;;;100090.66;;;;107213;1274;64770;-30
2022/05/12 12:16:21;;;;;;;6.80;1.50;;;;;;100093.45;;;;104939;1274;3098958;-30
2022/05/12 12:19:03;;;;;;;6.10;1.60;;;;;;100082.83;;;;107226;1274;67696;-28
2022/05/12 12:22:05;;;;;;;5.30;1.70;;;;;;100093.09;;;;107215;1274;64803;-45
2022/05/12 12:24:42;;;;;;;10.10;2.20;;;;;;100097.07;;;;107216;1273;64822;-30
2022/05/12 12:27:55;;;;;;;9.90;1.80;;;;;;100090.46;;;;107202;1274;65181;-26
2022/05/12 12:30:30;;;;;;;9.40;2.20;;;;;;100094.47;;;;107174;1274;64790;-26
2022/05/12 12:33:31;;;;;;;12.50;2.40;;;;;;100096.15;;;;107254;1274;67511;-30
2022/05/12 12:36:29;;;;;;;6.20;1.60;;;;;;100092.16;;;;107215;1273;64735;-29
2022/05/12 12:38:57;;;;;;;9.90;1.70;;;;;;100099.36;;;;107190;1274;64760;-27
2022/05/12 12:41:30;;;;;;;7.50;2.70;;;;;;100088.27;;;;107232;1274;64771;-27
2022/05/12 12:44:05;;;;;;;10.30;2.60;;;;;;100088.94;;;;107238;1273;64904;-27
2022/05/12 12:46:44;;;;;;;7.50;2.00;;;;;;100106.91;;;;107247;1274;66332;-31
2022/05/12 12:49:24;;;;;;;10.50;2.10;;;;;;100100.17;;;;107236;1274;64743;-29
2022/05/12 12:52:07;;;;;;;9.60;2.10;;;;;;100116.94;;;;107260;1274;64744;-28
2022/05/12 12:57:40;;;;;;;9.50;2.70;;;;;;100124.05;;;;107226;1274;64878;-26
2022/05/12 13:00:15;;;;;;;9.10;2.30;;;;;;100130.27;;;;107252;1274;67736;-25
2022/05/12 13:02:45;;;;;;;24.40;3.70;;;;;;100130.08;;;;107256;1274;65704;-30
2022/05/12 13:05:21;;;;;;;31.20;4.40;;;;;;100133.50;;;;107261;1274;64752;-31
2022/05/12 13:07:58;;;;;;;16.70;3.50;;;;;;100128.48;;;;107280;1274;64869;-30
2022/05/12 13:10:28;;;;;;;12.90;2.70;;;;;;100124.65;;;;107277;1272;64887;-30
2022/05/12 13:13:05;;;;;;;15.90;3.10;;;;;;100123.52;;;;107246;1274;67450;-28
2022/05/12 13:15:36;;;;;;;10.80;2.90;;;;;;100134.73;;;;107177;1274;64738;-26
2022/05/12 13:18:07;;;;;;;10.00;2.00;;;;;;100138.71;;;;107256;1274;64773;-26
2022/05/12 13:20:43;;;;;;;10.60;2.20;;;;;;100136.73;;;;107251;1274;64762;-27
2022/05/12 13:23:23;;;;;;;11.50;2.00;;;;;;100140.34;;;;107253;1274;64874;-27
2022/05/12 13:25:52;;;;;;;7.90;1.60;;;;;;100139.69;;;;107218;1274;67383;-27
2022/05/12 13:28:25;;;;;;;10.50;1.80;;;;;;100146.06;;;;107219;1274;64785;-26
2022/05/12 13:31:23;;;;;;;9.30;1.80;;;;;;100156.08;;;;107252;1274;64954;-32
2022/05/12 13:34:04;;;;;;;6.60;1.70;;;;;;100148.30;;;;107226;1274;64983;-29
2022/05/12 13:36:54;;;;;;;9.50;1.90;;;;;;100157.54;;;;107273;1274;64860;-28
2022/05/12 13:39:50;;;;;;;6.60;1.90;;;;;;100157.40;;;;107268;1274;65959;-27
2022/05/12 13:42:43;;;;;;;10.10;2.00;;;;;;100167.10;;;;107237;1274;64909;-27
2022/05/12 13:45:25;;;;;;;9.80;1.80;;;;;;100173.86;;;;107221;1274;64754;-29
2022/05/12 13:47:55;;;;;;;5.50;1.30;;;;;;100173.83;;;;107223;1274;64867;-28
2022/05/12 13:50:44;;;;;;;7.70;1.60;;;;;;100163.45;;;;107155;1274;62384;-26
2022/05/12 13:53:11;;;;;;;6.30;1.60;;;;;;100166.46;;;;107157;1274;67717;-25